Time,TemperatureF,DewpointF,PressureIn,WindDirection,WindDirectionDegrees,WindSpeedMPH,WindSpeedGustMPH,Humidity,HourlyPrecipIn,Conditions,Clouds,dailyrainin,SoftwareType,DateUTC
2013-03-18 00:00:00,35.1,25.2,30.19,East,95,3.0,3.0,67,0.00,,,0.00,Wunderground v.1.15,2013-03-18 04:00:00,
2013-03-18 00:05:00,35.2,25.3,30.19,ESE,112,4.0,4.0,67,0.00,,,0.00,Wunderground v.1.15,2013-03-18 04:05:00,
2013-03-18 00:10:00,35.2,25.7,30.18,ESE,118,4.0,5.0,68,0.00,,,0.00,Wunderground v.1.15,2013-03-18 04:10:00,
2013-03-18 00:20:00,35.2,25.0,30.19,ESE,112,3.0,3.0,66,0.00,,,0.00,Wunderground v.1.15,2013-03-18 04:20:00,
2013-03-18 00:25:00,35.1,25.2,30.19,East,101,3.0,3.0,67,0.00,,,0.00,Wunderground v.1.15,2013-03-18 04:25:00,
2013-03-18 00:30:00,35.1,25.6,30.19,ESE,108,3.0,3.0,68,0.00,,,0.00,Wunderground v.1.15,2013-03-18 04:30:00,
2013-03-18 00:40:00,35.0,24.8,30.19,ESE,108,2.0,2.0,66,0.00,,,0.00,Wunderground v.1.15,2013-03-18 04:40:00,
2013-03-18 00:50:00,35.0,25.1,30.19,SE,142,2.0,2.0,67,0.00,,,0.00,Wunderground v.1.15,2013-03-18 04:50:00,
2013-03-18 00:55:00,34.9,25.0,30.19,East,94,2.0,2.0,67,0.00,,,0.00,Wunderground v.1.15,2013-03-18 04:55:00,
2013-03-18 01:05:00,34.9,24.7,30.19,SE,131,2.0,2.0,66,0.00,,,0.00,Wunderground v.1.15,2013-03-18 05:05:00,
2013-03-18 01:15:00,34.6,25.5,30.19,East,101,2.0,4.0,69,0.00,,,0.00,Wunderground v.1.15,2013-03-18 05:15:00,
2013-03-18 01:25:00,34.1,26.0,30.20,East,98,4.0,6.0,72,0.00,,,0.00,Wunderground v.1.15,2013-03-18 05:25:00,
2013-03-18 01:30:00,33.8,26.4,30.20,SSE,147,4.0,4.0,74,0.00,,,0.00,Wunderground v.1.15,2013-03-18 05:30:00,
2013-03-18 01:40:00,33.3,27.2,30.20,SE,146,2.0,4.0,78,0.00,,,0.00,Wunderground v.1.15,2013-03-18 05:40:00,
2013-03-18 01:50:00,32.6,27.4,30.20,SSE,147,2.0,5.0,81,0.00,,,0.00,Wunderground v.1.15,2013-03-18 05:50:00,
2013-03-18 02:00:00,32.1,27.8,30.21,ESE,118,2.0,2.0,84,0.00,,,0.00,Wunderground v.1.15,2013-03-18 06:00:00,
2013-03-18 02:05:00,31.9,27.9,30.21,ESE,118,1.0,2.0,85,0.00,,,0.00,Wunderground v.1.15,2013-03-18 06:05:00,
2013-03-18 02:15:00,31.5,28.1,30.21,ESE,118,0.0,1.0,87,0.00,,,0.00,Wunderground v.1.15,2013-03-18 06:15:00,
2013-03-18 02:25:00,31.4,28.3,30.21,East,81,0.0,0.0,88,0.00,,,0.00,Wunderground v.1.15,2013-03-18 06:25:00,
2013-03-18 02:30:00,31.3,28.4,30.21,East,84,1.0,2.0,89,0.00,,,0.00,Wunderground v.1.15,2013-03-18 06:30:00,
2013-03-18 02:40:00,31.2,28.3,30.20,East,79,2.0,2.0,89,0.00,,,0.00,Wunderground v.1.15,2013-03-18 06:40:00,
2013-03-18 02:50:00,31.1,28.2,30.20,East,79,1.0,2.0,89,0.00,,,0.00,Wunderground v.1.15,2013-03-18 06:50:00,
2013-03-18 03:00:00,31.1,28.5,30.20,ESE,111,1.0,3.0,90,0.00,,,0.00,Wunderground v.1.15,2013-03-18 07:00:00,
2013-03-18 03:05:00,31.1,28.5,30.20,SSE,165,2.0,3.0,90,0.00,,,0.00,Wunderground v.1.15,2013-03-18 07:05:00,
2013-03-18 03:15:00,30.9,28.3,30.20,ENE,72,1.0,5.0,90,0.00,,,0.00,Wunderground v.1.15,2013-03-18 07:15:00,
2013-03-18 03:25:00,30.9,28.3,30.20,South,176,3.0,5.0,90,0.00,,,0.00,Wunderground v.1.15,2013-03-18 07:25:00,
2013-03-18 03:30:00,30.8,28.2,30.20,ESE,111,2.0,2.0,90,0.00,,,0.00,Wunderground v.1.15,2013-03-18 07:30:00,
2013-03-18 03:40:00,30.8,28.5,30.19,ENE,68,1.0,1.0,91,0.00,,,0.00,Wunderground v.1.15,2013-03-18 07:40:00,
2013-03-18 03:50:00,30.8,28.5,30.19,East,101,1.0,1.0,91,0.00,,,0.00,Wunderground v.1.15,2013-03-18 07:50:00,
2013-03-18 04:00:00,30.7,28.4,30.19,East,99,1.0,1.0,91,0.00,,,0.00,Wunderground v.1.15,2013-03-18 08:00:00,
2013-03-18 04:05:00,30.7,28.4,30.19,East,99,1.0,1.0,91,0.00,,,0.00,Wunderground v.1.15,2013-03-18 08:05:00,
2013-03-18 04:15:00,30.7,28.7,30.19,East,90,1.0,2.0,92,0.00,,,0.00,Wunderground v.1.15,2013-03-18 08:15:00,
2013-03-18 04:25:00,30.7,28.7,30.19,East,90,1.0,1.0,92,0.00,,,0.00,Wunderground v.1.15,2013-03-18 08:25:00,
2013-03-18 04:35:00,30.7,28.7,30.19,East,91,2.0,2.0,92,0.00,,,0.00,Wunderground v.1.15,2013-03-18 08:35:00,
2013-03-18 04:40:00,30.6,28.6,30.19,ENE,70,2.0,2.0,92,0.00,,,0.00,Wunderground v.1.15,2013-03-18 08:40:00,
2013-03-18 04:45:00,30.6,28.6,30.20,East,79,2.0,2.0,92,0.00,,,0.00,Wunderground v.1.15,2013-03-18 08:45:00,
2013-03-18 04:55:00,30.6,28.6,30.20,East,97,2.0,2.0,92,0.00,,,0.00,Wunderground v.1.15,2013-03-18 08:55:00,
2013-03-18 05:05:00,30.5,28.5,30.19,ESE,102,2.0,3.0,92,0.00,,,0.00,Wunderground v.1.15,2013-03-18 09:05:00,
2013-03-18 05:15:00,30.5,28.5,30.20,East,93,3.0,3.0,92,0.00,,,0.00,Wunderground v.1.15,2013-03-18 09:15:00,
2013-03-18 05:20:00,30.5,28.5,30.19,East,93,3.0,3.0,92,0.00,,,0.00,Wunderground v.1.15,2013-03-18 09:20:00,
2013-03-18 05:30:00,30.5,28.5,30.20,ENE,64,2.0,2.0,92,0.00,,,0.00,Wunderground v.1.15,2013-03-18 09:30:00,
2013-03-18 05:40:00,30.5,28.5,30.20,East,85,4.0,4.0,92,0.00,,,0.00,Wunderground v.1.15,2013-03-18 09:40:00,
2013-03-18 05:50:00,30.5,28.5,30.20,East,98,4.0,4.0,92,0.00,,,0.00,Wunderground v.1.15,2013-03-18 09:50:00,
2013-03-18 06:00:00,30.5,28.5,30.20,East,79,3.0,6.0,92,0.00,,,0.00,Wunderground v.1.15,2013-03-18 10:00:00,
2013-03-18 06:05:00,30.5,28.5,30.21,East,85,3.0,6.0,92,0.00,,,0.00,Wunderground v.1.15,2013-03-18 10:05:00,
2013-03-18 06:15:00,30.5,28.5,30.21,East,87,3.0,3.0,92,0.00,,,0.00,Wunderground v.1.15,2013-03-18 10:15:00,
2013-03-18 06:25:00,30.5,28.5,30.21,East,83,4.0,5.0,92,0.00,,,0.00,Wunderground v.1.15,2013-03-18 10:25:00,
2013-03-18 06:35:00,30.5,28.7,30.21,ENE,75,4.0,5.0,93,0.00,,,0.00,Wunderground v.1.15,2013-03-18 10:35:00,
2013-03-18 06:45:00,30.4,28.4,30.20,ENE,66,5.0,5.0,92,0.00,,,0.00,Wunderground v.1.15,2013-03-18 10:45:00,
2013-03-18 06:55:00,30.4,28.6,30.20,East,87,4.0,6.0,93,0.00,,,0.00,Wunderground v.1.15,2013-03-18 10:55:00,
2013-03-18 07:05:00,30.4,28.4,30.20,East,79,5.0,5.0,92,0.00,,,0.00,Wunderground v.1.15,2013-03-18 11:05:00,
2013-03-18 07:15:00,30.3,28.3,30.21,East,83,4.0,6.0,92,0.00,,,0.00,Wunderground v.1.15,2013-03-18 11:15:00,
2013-03-18 07:25:00,30.4,28.4,30.20,East,81,5.0,5.0,92,0.00,,,0.00,Wunderground v.1.15,2013-03-18 11:25:00,
2013-03-18 07:35:00,30.4,28.4,30.20,ENE,73,4.0,4.0,92,0.00,,,0.00,Wunderground v.1.15,2013-03-18 11:35:00,
2013-03-18 07:45:00,30.6,28.6,30.20,East,100,4.0,6.0,92,0.00,,,0.00,Wunderground v.1.15,2013-03-18 11:45:00,
2013-03-18 07:50:00,30.5,28.5,30.20,NE,50,5.0,5.0,92,0.00,,,0.00,Wunderground v.1.15,2013-03-18 11:50:00,
2013-03-18 08:00:00,30.5,28.5,30.20,East,93,4.0,7.0,92,0.00,,,0.00,Wunderground v.1.15,2013-03-18 12:00:00,
2013-03-18 08:05:00,30.5,28.5,30.20,ESE,109,5.0,7.0,92,0.00,,,0.00,Wunderground v.1.15,2013-03-18 12:05:00,
2013-03-18 08:15:00,30.4,28.1,30.19,East,97,6.0,6.0,91,0.00,,,0.00,Wunderground v.1.15,2013-03-18 12:15:00,
2013-03-18 08:25:00,30.4,28.1,30.19,ESE,105,4.0,5.0,91,0.00,,,0.00,Wunderground v.1.15,2013-03-18 12:25:00,
2013-03-18 08:35:00,30.4,28.1,30.18,East,100,6.0,6.0,91,0.00,,,0.00,Wunderground v.1.15,2013-03-18 12:35:00,
2013-03-18 08:45:00,30.3,28.0,30.18,ESE,104,5.0,6.0,91,0.00,,,0.00,Wunderground v.1.15,2013-03-18 12:45:00,
2013-03-18 08:55:00,30.3,27.7,30.17,ESE,108,5.0,9.0,90,0.00,,,0.00,Wunderground v.1.15,2013-03-18 12:55:00,
2013-03-18 09:05:00,30.3,27.7,30.17,East,100,5.0,5.0,90,0.00,,,0.00,Wunderground v.1.15,2013-03-18 13:05:00,
2013-03-18 09:15:00,30.4,27.8,30.17,ESE,102,5.0,7.0,90,0.00,,,0.00,Wunderground v.1.15,2013-03-18 13:15:00,
2013-03-18 09:25:00,30.5,27.9,30.17,ESE,116,5.0,5.0,90,0.00,,,0.00,Wunderground v.1.15,2013-03-18 13:25:00,
2013-03-18 09:35:00,30.6,27.7,30.16,East,81,5.0,6.0,89,0.00,,,0.00,Wunderground v.1.15,2013-03-18 13:35:00,
2013-03-18 09:40:00,30.7,27.8,30.16,ESE,105,4.0,4.0,89,0.00,,,0.00,Wunderground v.1.15,2013-03-18 13:40:00,
2013-03-18 09:50:00,30.8,27.9,30.15,ESE,106,5.0,5.0,89,0.00,,,0.00,Wunderground v.1.15,2013-03-18 13:50:00,
2013-03-18 10:00:00,31.0,27.9,30.15,East,83,4.0,7.0,88,0.00,,,0.00,Wunderground v.1.15,2013-03-18 14:00:00,
2013-03-18 10:05:00,31.1,28.0,30.15,ENE,75,4.0,7.0,88,0.00,,,0.00,Wunderground v.1.15,2013-03-18 14:05:00,
2013-03-18 10:15:00,31.4,28.3,30.15,East,88,4.0,5.0,88,0.00,,,0.00,Wunderground v.1.15,2013-03-18 14:15:00,
2013-03-18 10:25:00,31.5,28.1,30.13,East,101,4.0,8.0,87,0.00,,,0.00,Wunderground v.1.15,2013-03-18 14:25:00,
2013-03-18 10:30:00,31.5,28.1,30.13,ESE,102,5.0,5.0,87,0.00,,,0.00,Wunderground v.1.15,2013-03-18 14:30:00,
2013-03-18 10:40:00,31.5,28.1,30.13,East,85,4.0,4.0,87,0.00,,,0.00,Wunderground v.1.15,2013-03-18 14:40:00,
2013-03-18 10:50:00,31.6,28.2,30.13,East,100,4.0,4.0,87,0.00,,,0.00,Wunderground v.1.15,2013-03-18 14:50:00,
2013-03-18 10:55:00,31.6,27.9,30.13,East,86,4.0,5.0,86,0.00,,,0.00,Wunderground v.1.15,2013-03-18 14:55:00,
2013-03-18 11:05:00,31.6,27.9,30.14,ESE,104,4.0,7.0,86,0.00,,,0.00,Wunderground v.1.15,2013-03-18 15:05:00,
2013-03-18 11:15:00,31.6,27.9,30.13,ESE,102,4.0,5.0,86,0.00,,,0.00,Wunderground v.1.15,2013-03-18 15:15:00,
2013-03-18 11:25:00,31.6,28.2,30.14,ESE,102,3.0,4.0,87,0.00,,,0.00,Wunderground v.1.15,2013-03-18 15:25:00,
2013-03-18 11:35:00,31.8,28.4,30.13,East,100,4.0,5.0,87,0.00,,,0.00,Wunderground v.1.15,2013-03-18 15:35:00,
2013-03-18 11:45:00,31.7,28.3,30.13,ESE,106,4.0,5.0,87,0.00,,,0.00,Wunderground v.1.15,2013-03-18 15:45:00,
2013-03-18 11:50:00,31.8,28.7,30.12,ESE,106,4.0,4.0,88,0.00,,,0.00,Wunderground v.1.15,2013-03-18 15:50:00,
2013-03-18 12:00:00,31.9,28.5,30.12,ESE,103,4.0,4.0,87,0.00,,,0.00,Wunderground v.1.15,2013-03-18 16:00:00,
2013-03-18 12:05:00,31.9,28.8,30.12,East,93,4.0,4.0,88,0.00,,,0.00,Wunderground v.1.15,2013-03-18 16:05:00,
2013-03-18 12:15:00,32.0,28.6,30.12,ESE,120,4.0,6.0,87,0.00,,,0.00,Wunderground v.1.15,2013-03-18 16:15:00,
2013-03-18 12:20:00,32.0,28.8,30.11,East,83,4.0,5.0,88,0.00,,,0.00,Wunderground v.1.15,2013-03-18 16:20:00,
2013-03-18 12:30:00,32.1,28.9,30.11,East,94,4.0,4.0,88,0.00,,,0.00,Wunderground v.1.15,2013-03-18 16:30:00,
2013-03-18 12:40:00,31.9,28.8,30.11,ESE,108,3.0,7.0,88,0.00,,,0.00,Wunderground v.1.15,2013-03-18 16:40:00,
2013-03-18 12:50:00,31.9,29.0,30.11,East,89,3.0,3.0,89,0.00,,,0.00,Wunderground v.1.15,2013-03-18 16:50:00,
2013-03-18 13:00:00,31.6,28.7,30.10,SE,125,3.0,3.0,89,0.00,,,0.00,Wunderground v.1.15,2013-03-18 17:00:00,
2013-03-18 13:05:00,31.5,28.6,30.09,East,87,3.0,3.0,89,0.00,,,0.00,Wunderground v.1.15,2013-03-18 17:05:00,
2013-03-18 13:15:00,31.3,28.7,30.07,NE,50,3.0,3.0,90,0.00,,,0.00,Wunderground v.1.15,2013-03-18 17:15:00,
2013-03-18 13:25:00,31.1,28.5,30.08,ESE,113,3.0,3.0,90,0.00,,,0.00,Wunderground v.1.15,2013-03-18 17:25:00,
2013-03-18 13:35:00,31.0,28.7,30.07,ESE,105,3.0,3.0,91,0.00,,,0.00,Wunderground v.1.15,2013-03-18 17:35:00,
2013-03-18 13:45:00,30.9,28.6,30.07,East,101,2.0,4.0,91,0.00,,,0.00,Wunderground v.1.15,2013-03-18 17:45:00,
2013-03-18 13:55:00,31.0,28.7,30.06,East,93,3.0,5.0,91,0.00,,,0.00,Wunderground v.1.15,2013-03-18 17:55:00,
2013-03-18 14:05:00,31.0,28.9,30.05,ESE,102,3.0,5.0,92,0.00,,,0.00,Wunderground v.1.15,2013-03-18 18:05:00,
2013-03-18 14:15:00,31.0,28.9,30.04,ESE,106,3.0,3.0,92,0.00,,,0.00,Wunderground v.1.15,2013-03-18 18:15:00,
2013-03-18 14:25:00,31.0,28.9,30.03,ESE,106,3.0,3.0,92,0.00,,,0.00,Wunderground v.1.15,2013-03-18 18:25:00,
2013-03-18 14:35:00,30.9,28.9,30.02,ESE,102,3.0,3.0,92,0.00,,,0.00,Wunderground v.1.15,2013-03-18 18:35:00,
2013-03-18 14:45:00,31.0,28.9,30.03,East,96,2.0,3.0,92,0.00,,,0.00,Wunderground v.1.15,2013-03-18 18:45:00,
2013-03-18 14:50:00,31.0,28.9,30.02,ESE,104,2.0,2.0,92,0.00,,,0.00,Wunderground v.1.15,2013-03-18 18:50:00,
2013-03-18 15:00:00,31.2,29.4,30.02,ENE,73,2.0,3.0,93,0.00,,,0.00,Wunderground v.1.15,2013-03-18 19:00:00,
2013-03-18 15:05:00,31.4,29.6,30.02,ESE,111,2.0,3.0,93,0.00,,,0.00,Wunderground v.1.15,2013-03-18 19:05:00,
2013-03-18 15:15:00,31.6,29.5,30.01,East,96,3.0,3.0,92,0.00,,,0.00,Wunderground v.1.15,2013-03-18 19:15:00,
2013-03-18 15:20:00,31.6,29.5,30.01,SE,126,3.0,3.0,92,0.00,,,0.00,Wunderground v.1.15,2013-03-18 19:20:00,
2013-03-18 15:30:00,31.8,30.0,30.01,ESE,103,2.0,2.0,93,0.00,,,0.00,Wunderground v.1.15,2013-03-18 19:30:00,
2013-03-18 15:40:00,32.0,29.9,30.01,East,100,2.0,2.0,92,0.00,,,0.00,Wunderground v.1.15,2013-03-18 19:40:00,
2013-03-18 15:45:00,32.2,30.1,30.01,ESE,106,3.0,3.0,92,0.00,,,0.00,Wunderground v.1.15,2013-03-18 19:45:00,
2013-03-18 15:55:00,32.3,30.2,30.00,East,87,3.0,3.0,92,0.00,,,0.00,Wunderground v.1.15,2013-03-18 19:55:00,
2013-03-18 16:05:00,32.4,30.3,30.00,East,85,4.0,6.0,92,0.00,,,0.00,Wunderground v.1.15,2013-03-18 20:05:00,
2013-03-18 16:15:00,32.5,30.4,29.99,East,98,4.0,5.0,92,0.00,,,0.00,Wunderground v.1.15,2013-03-18 20:15:00,
2013-03-18 16:20:00,32.5,30.4,30.00,ESE,102,3.0,3.0,92,0.00,,,0.00,Wunderground v.1.15,2013-03-18 20:20:00,
2013-03-18 16:30:00,32.6,30.5,29.99,East,81,3.0,3.0,92,0.00,,,0.00,Wunderground v.1.15,2013-03-18 20:30:00,
2013-03-18 16:40:00,32.7,30.6,29.99,East,90,4.0,6.0,92,0.00,,,0.00,Wunderground v.1.15,2013-03-18 20:40:00,
2013-03-18 16:45:00,32.7,30.6,29.98,ESE,114,4.0,7.0,92,0.00,,,0.00,Wunderground v.1.15,2013-03-18 20:45:00,
2013-03-18 16:55:00,32.8,30.7,29.98,East,97,4.0,6.0,92,0.00,,,0.00,Wunderground v.1.15,2013-03-18 20:55:00,
2013-03-18 17:05:00,32.9,30.8,29.97,East,97,4.0,5.0,92,0.00,,,0.00,Wunderground v.1.15,2013-03-18 21:05:00,
2013-03-18 17:15:00,32.8,30.7,29.95,East,85,3.0,4.0,92,0.00,,,0.00,Wunderground v.1.15,2013-03-18 21:15:00,
2013-03-18 17:25:00,32.8,30.7,29.95,ENE,68,3.0,4.0,92,0.00,,,0.00,Wunderground v.1.15,2013-03-18 21:25:00,
2013-03-18 17:35:00,32.8,30.7,29.94,East,93,3.0,3.0,92,0.00,,,0.00,Wunderground v.1.15,2013-03-18 21:35:00,
2013-03-18 17:45:00,32.7,30.6,29.93,ESE,117,5.0,5.0,92,0.00,,,0.00,Wunderground v.1.15,2013-03-18 21:45:00,
2013-03-18 17:50:00,32.6,30.5,29.92,East,101,5.0,5.0,92,0.00,,,0.00,Wunderground v.1.15,2013-03-18 21:50:00,
2013-03-18 18:00:00,32.7,30.6,29.92,East,79,5.0,5.0,92,0.00,,,0.00,Wunderground v.1.15,2013-03-18 22:00:00,
2013-03-18 18:05:00,32.7,30.6,29.92,ENE,66,4.0,5.0,92,0.00,,,0.00,Wunderground v.1.15,2013-03-18 22:05:00,
2013-03-18 18:15:00,32.7,30.6,29.92,East,89,4.0,5.0,92,0.00,,,0.00,Wunderground v.1.15,2013-03-18 22:15:00,
2013-03-18 18:20:00,32.7,30.6,29.90,East,80,4.0,7.0,92,0.00,,,0.00,Wunderground v.1.15,2013-03-18 22:20:00,
2013-03-18 18:30:00,32.7,30.6,29.91,East,95,5.0,7.0,92,0.00,,,0.00,Wunderground v.1.15,2013-03-18 22:30:00,
2013-03-18 18:35:00,32.7,30.6,29.90,ENE,60,5.0,7.0,92,0.00,,,0.00,Wunderground v.1.15,2013-03-18 22:35:00,
2013-03-18 18:45:00,32.6,30.5,29.91,ENE,57,5.0,6.0,92,0.00,,,0.00,Wunderground v.1.15,2013-03-18 22:45:00,
2013-03-18 18:50:00,32.6,30.5,29.91,NNE,19,4.0,5.0,92,0.00,,,0.00,Wunderground v.1.15,2013-03-18 22:50:00,
2013-03-18 18:55:00,32.5,30.4,29.92,ENE,75,4.0,5.0,92,0.00,,,0.00,Wunderground v.1.15,2013-03-18 22:55:00,
2013-03-18 19:05:00,32.5,30.7,29.92,ENE,68,3.0,6.0,93,0.00,,,0.00,Wunderground v.1.15,2013-03-18 23:05:00,
2013-03-18 19:15:00,32.4,30.3,29.92,ENE,62,2.0,3.0,92,0.00,,,0.00,Wunderground v.1.15,2013-03-18 23:15:00,
2013-03-18 19:25:00,32.3,30.5,29.91,NNE,29,2.0,3.0,93,0.00,,,0.00,Wunderground v.1.15,2013-03-18 23:25:00,
2013-03-18 19:30:00,32.3,30.5,29.91,NE,42,2.0,5.0,93,0.00,,,0.00,Wunderground v.1.15,2013-03-18 23:30:00,
2013-03-18 19:40:00,32.3,30.5,29.91,ENE,72,3.0,3.0,93,0.00,,,0.00,Wunderground v.1.15,2013-03-18 23:40:00,
2013-03-18 19:50:00,32.2,30.4,29.91,East,85,3.0,3.0,93,0.00,,,0.00,Wunderground v.1.15,2013-03-18 23:50:00,
2013-03-18 20:00:00,32.3,30.5,29.91,ENE,64,2.0,2.0,93,0.00,,,0.00,Wunderground v.1.15,2013-03-19 00:00:00,
2013-03-18 20:05:00,32.4,30.6,29.91,NE,37,2.0,5.0,93,0.00,,,0.00,Wunderground v.1.15,2013-03-19 00:05:00,
2013-03-18 20:15:00,32.4,30.6,29.91,ESE,107,2.0,3.0,93,0.00,,,0.00,Wunderground v.1.15,2013-03-19 00:15:00,
2013-03-18 20:25:00,32.4,30.6,29.90,East,79,2.0,2.0,93,0.00,,,0.00,Wunderground v.1.15,2013-03-19 00:25:00,
2013-03-18 20:30:00,32.4,30.6,29.90,NNE,23,1.0,1.0,93,0.00,,,0.00,Wunderground v.1.15,2013-03-19 00:30:00,
2013-03-18 20:40:00,32.4,30.6,29.90,ENE,75,1.0,2.0,93,0.00,,,0.00,Wunderground v.1.15,2013-03-19 00:40:00,
2013-03-18 20:50:00,32.5,30.7,29.90,ENE,77,2.0,2.0,93,0.00,,,0.00,Wunderground v.1.15,2013-03-19 00:50:00,
2013-03-18 21:00:00,32.5,30.7,29.90,ENE,57,2.0,3.0,93,0.00,,,0.00,Wunderground v.1.15,2013-03-19 01:00:00,
2013-03-18 21:05:00,32.5,30.7,29.89,ESE,114,2.0,3.0,93,0.00,,,0.00,Wunderground v.1.15,2013-03-19 01:05:00,
2013-03-18 21:15:00,32.4,30.6,29.89,ENE,70,1.0,2.0,93,0.00,,,0.00,Wunderground v.1.15,2013-03-19 01:15:00,
2013-03-18 21:20:00,32.4,30.6,29.89,NNE,28,1.0,1.0,93,0.00,,,0.00,Wunderground v.1.15,2013-03-19 01:20:00,
2013-03-18 21:30:00,32.4,30.6,29.89,NE,34,0.0,0.0,93,0.00,,,0.00,Wunderground v.1.15,2013-03-19 01:30:00,
2013-03-18 21:40:00,32.4,30.6,29.89,ENE,78,1.0,1.0,93,0.00,,,0.00,Wunderground v.1.15,2013-03-19 01:40:00,
2013-03-18 21:50:00,32.4,30.6,29.88,ENE,67,0.0,0.0,93,0.00,,,0.00,Wunderground v.1.15,2013-03-19 01:50:00,
2013-03-18 22:00:00,32.4,30.6,29.88,North,10,0.0,0.0,93,0.00,,,0.00,Wunderground v.1.15,2013-03-19 02:00:00,
2013-03-18 22:05:00,32.4,30.6,29.87,NE,43,0.0,0.0,93,0.00,,,0.00,Wunderground v.1.15,2013-03-19 02:05:00,
2013-03-18 22:15:00,32.3,30.5,29.86,NE,49,1.0,2.0,93,0.00,,,0.00,Wunderground v.1.15,2013-03-19 02:15:00,
2013-03-18 22:20:00,32.3,30.5,29.87,NE,49,0.0,0.0,93,0.00,,,0.00,Wunderground v.1.15,2013-03-19 02:20:00,
2013-03-18 22:30:00,32.3,30.5,29.87,ENE,62,0.0,0.0,93,0.00,,,0.00,Wunderground v.1.15,2013-03-19 02:30:00,
2013-03-18 22:40:00,32.3,30.5,29.87,ENE,59,1.0,1.0,93,0.00,,,0.00,Wunderground v.1.15,2013-03-19 02:40:00,
2013-03-18 22:50:00,32.3,30.5,29.86,NE,45,0.0,0.0,93,0.00,,,0.00,Wunderground v.1.15,2013-03-19 02:50:00,
2013-03-18 23:00:00,32.3,30.5,29.86,East,82,0.0,0.0,93,0.00,,,0.00,Wunderground v.1.15,2013-03-19 03:00:00,
2013-03-18 23:05:00,32.3,30.5,29.86,NNE,27,1.0,1.0,93,0.00,,,0.00,Wunderground v.1.15,2013-03-19 03:05:00,
2013-03-18 23:15:00,32.3,30.5,29.86,NE,43,0.0,1.0,93,0.00,,,0.00,Wunderground v.1.15,2013-03-19 03:15:00,
2013-03-18 23:25:00,32.2,30.4,29.86,NE,43,0.0,0.0,93,0.00,,,0.00,Wunderground v.1.15,2013-03-19 03:25:00,
2013-03-18 23:35:00,32.2,30.4,29.85,NE,43,0.0,0.0,93,0.00,,,0.00,Wunderground v.1.15,2013-03-19 03:35:00,
2013-03-18 23:45:00,32.2,30.4,29.84,NE,48,0.0,0.0,93,0.00,,,0.00,Wunderground v.1.15,2013-03-19 03:45:00,
2013-03-18 23:55:00,32.2,30.4,29.84,East,79,0.0,1.0,93,0.00,,,0.00,Wunderground v.1.15,2013-03-19 03:55:00,